This is the latest recevied weather packets stored in our database for station/object Waldburg. If no packets are shown the sender has not sent any weather packets the latest 10 day(s).
| Time | Temp. | Humidity | Pressure | Rain* | Wind** | Luminosity | Snow |
|---|---|---|---|---|---|---|---|
| 1787995930 | 20.56° C | 71% | 1016.6 hPa | 0.51 mm | - | - | - |
| 1787994130 | 19.44° C | 75% | 1016.7 hPa | 0.51 mm | - | - | - |
| 1787992330 | 18.33° C | 80% | 1016.5 hPa | 0.51 mm | - | - | - |
| 1787990530 | 17.22° C | 87% | 1016.3 hPa | 0.51 mm | - | - | - |
| 1787988730 | 15.56° C | 96% | 1016.3 hPa | 0.51 mm | - | - | - |
| 1787986930 | 14.44° C | 97% | 1016.4 hPa | 0.51 mm | - | - | - |
| 1787985130 | 13.89° C | 97% | 1016.4 hPa | 0.51 mm | - | - | - |
| 1787983330 | 13.33° C | 97% | 1016.5 hPa | 0.51 mm | - | - | - |
| 1787981530 | 12.78° C | 96% | 1016.2 hPa | 0.51 mm | - | - | - |
| 1787979730 | 12.78° C | 96% | 1015.8 hPa | 0.51 mm | - | - | - |
| 1787977930 | 12.78° C | 96% | 1015.6 hPa | 0.51 mm | - | - | - |
| 1787976129 | 12.78° C | 96% | 1015.4 hPa | 0.25 mm | - | - | - |
| 1787974329 | 13.33° C | 96% | 1015.6 hPa | 0.25 mm | - | - | - |
| 1787972530 | 13.33° C | 96% | 1015.6 hPa | 0.25 mm | - | - | - |
| 1787970729 | 13.33° C | 96% | 1015.4 hPa | 0.25 mm | - | - | - |
| 1787968930 | 13.33° C | 96% | 1015.3 hPa | 0.25 mm | - | - | - |
| 1787967132 | 13.33° C | 96% | 1015.3 hPa | 0.25 mm | - | - | - |
| 1787965329 | 13.33° C | 96% | 1015.6 hPa | 0.25 mm | - | - | - |
| 1787963531 | 13.33° C | 96% | 1015.7 hPa | 0.25 mm | - | - | - |
| 1787961732 | 13.33° C | 95% | 1015.6 hPa | 0 mm | - | - | - |
| 1787959940 | 13.89° C | 95% | 1015.6 hPa | 0 mm | - | - | - |
| 1787958131 | 13.89° C | 95% | 1015.6 hPa | 0 mm | - | - | - |
| 1787956331 | 13.89° C | 95% | 1015.5 hPa | 0 mm | - | - | - |
| 1787954531 | 13.89° C | 95% | 1015.3 hPa | 0 mm | - | - | - |
| 1787952731 | 14.44° C | 95% | 1015.3 hPa | 10.41 mm | - | - | - |
* Rain since midnight (hover to see other rain measurements)
** Current wind speed in m/s (hover to see current wind gust speed)